createdAt,value
2018-06-28T00:08:05.584Z,99.90
2018-06-28T00:10:38.238Z,99.90
2018-06-28T00:13:15.156Z,99.90
2018-06-28T00:15:50.345Z,99.90
2018-06-28T00:18:29.713Z,99.90
2018-06-28T00:21:05.736Z,99.90
2018-06-28T00:23:40.624Z,99.90
2018-06-28T00:26:29.348Z,99.90
2018-06-28T00:29:09.302Z,99.90
2018-06-28T06:45:44.750Z,92.80
2018-06-28T06:48:17.351Z,85.60
2018-06-28T06:50:52.624Z,78.50
2018-06-28T06:53:26.390Z,71.10
2018-06-28T06:55:57.765Z,66.40
2018-06-28T06:58:30.400Z,62.20
2018-06-28T07:01:01.489Z,63.20
2018-06-28T07:03:34.482Z,59.70
2018-06-28T07:06:10.739Z,59.70
2018-06-28T07:08:41.646Z,60.60
2018-06-28T07:11:12.870Z,59.00
2018-06-28T07:13:46.521Z,57.30
2018-06-28T07:16:18.473Z,55.50
2018-06-28T07:18:50.847Z,55.70
2018-06-28T07:21:23.345Z,56.00
2018-06-28T07:23:57.287Z,58.00
2018-06-28T07:26:30.184Z,61.40
2018-06-28T07:31:35.653Z,62.10
2018-06-28T07:34:07.349Z,63.40
2018-06-28T07:36:39.990Z,63.30
2018-06-28T07:39:15.425Z,60.10
2018-06-28T07:41:47.659Z,55.40
2018-06-28T07:44:19.194Z,57.60
2018-06-28T07:46:54.413Z,53.90
2018-06-28T07:49:28.859Z,51.60
2018-06-28T07:51:59.771Z,47.70
2018-06-28T07:54:30.681Z,48.00
2018-06-28T07:57:01.600Z,49.80
2018-06-28T08:02:02.776Z,49.60
2018-06-28T08:04:33.717Z,51.80
2018-06-28T08:07:04.769Z,53.30
2018-06-28T08:09:35.631Z,53.80
2018-06-28T08:12:06.535Z,53.10
2018-06-28T08:14:37.649Z,49.80
2018-06-28T08:17:08.595Z,48.30
2018-06-28T08:22:11.293Z,48.90
2018-06-28T08:27:18.849Z,48.70
2018-06-28T08:29:49.643Z,51.00
2018-06-28T08:32:22.996Z,53.10
2018-06-28T08:34:56.652Z,55.50
2018-06-28T08:37:30.751Z,57.30
2018-06-28T08:40:01.664Z,59.60
2018-06-28T08:43:12.780Z,59.00
2018-06-28T08:45:50.144Z,60.80
2018-06-28T08:48:21.156Z,61.00
2018-06-28T08:50:52.139Z,60.00
2018-06-28T08:53:24.080Z,57.50
2018-06-28T08:55:55.218Z,57.00
2018-06-28T08:58:26.088Z,56.70
2018-06-28T09:00:57.082Z,58.00
2018-06-28T09:03:27.956Z,59.60
2018-06-28T09:05:58.805Z,60.40
2018-06-28T09:08:29.789Z,58.50
2018-06-28T09:11:00.590Z,56.40
2018-06-28T09:13:31.442Z,54.40
2018-06-28T09:16:02.345Z,53.10
2018-06-28T09:18:33.240Z,56.40
2018-06-28T09:21:11.654Z,56.10
2018-06-28T09:23:42.616Z,55.80
2018-06-28T09:28:43.721Z,51.70
2018-06-28T09:31:15.256Z,53.40
2018-06-28T09:33:46.274Z,52.40
2018-06-28T09:36:17.209Z,51.10
2018-06-28T09:38:48.065Z,51.60
2018-06-28T09:41:18.935Z,52.20
2018-06-28T09:43:49.705Z,51.30
2018-06-28T09:46:24.840Z,52.20
2018-06-28T14:24:18.279Z,67.20
2018-06-28T14:27:03.321Z,68.60
2018-06-28T14:51:47.279Z,70.50
2018-06-28T14:54:18.851Z,70.10
2018-06-28T14:56:51.457Z,70.20
2018-06-28T14:59:33.856Z,69.80
2018-06-28T15:02:04.834Z,70.00
2018-06-28T15:04:35.957Z,71.30
2018-06-28T15:07:07.184Z,71.40
2018-06-28T15:09:38.281Z,71.70
2018-06-28T15:12:09.308Z,71.80
2018-06-28T15:14:40.440Z,71.00
2018-06-28T15:17:11.405Z,71.00
2018-06-28T15:19:42.443Z,71.00
2018-06-28T15:22:13.446Z,71.40
2018-06-28T15:24:44.692Z,71.50
2018-06-28T15:27:15.908Z,72.10
2018-06-28T15:30:02.120Z,71.30
2018-06-28T15:35:48.670Z,71.20
2018-06-28T15:38:34.943Z,71.00
2018-06-28T15:41:22.768Z,71.00
2018-06-28T15:43:55.414Z,72.30
2018-06-28T15:49:19.715Z,71.40
2018-06-28T15:51:53.030Z,72.50
2018-06-28T15:54:24.187Z,72.10
2018-06-28T15:56:55.125Z,72.30
2018-06-28T15:59:25.922Z,73.00
2018-06-28T16:01:57.239Z,72.80
2018-06-28T16:06:58.778Z,73.00
2018-06-28T16:09:29.642Z,73.50
2018-06-28T16:12:00.569Z,73.40
2018-06-28T16:30:06.045Z,74.00
2018-06-28T16:32:37.102Z,74.30
2018-06-28T16:35:07.947Z,74.40
2018-06-28T16:37:38.911Z,74.70
2018-06-28T16:40:09.869Z,74.30
2018-06-28T16:42:40.929Z,74.70
2018-06-28T16:45:11.991Z,74.80
2018-06-28T16:47:43.081Z,74.80
2018-06-28T16:50:14.247Z,74.80
2018-06-28T16:52:46.048Z,75.20
2018-06-28T16:55:17.290Z,75.20
2018-06-28T16:57:49.189Z,76.20
2018-06-28T17:00:41.343Z,75.80
2018-06-28T17:03:16.304Z,76.10
2018-06-28T17:05:48.768Z,76.40
2018-06-28T17:08:22.321Z,76.50
2018-06-28T17:10:53.468Z,77.10
2018-06-28T17:13:28.085Z,77.90
2018-06-28T17:18:27.866Z,78.50
2018-06-28T17:21:50.040Z,78.70
2018-06-28T18:39:41.705Z,79.60
2018-06-28T18:44:43.006Z,84.90
2018-06-28T18:47:14.050Z,85.40
2018-06-28T18:49:45.185Z,85.60
2018-06-28T18:52:15.982Z,85.40
2018-06-28T18:57:17.817Z,85.40
2018-06-28T18:59:50.513Z,85.60
2018-06-28T19:02:23.033Z,85.80
2018-06-28T19:04:53.891Z,86.10
2018-06-28T19:07:24.783Z,86.30
2018-06-28T19:10:00.820Z,86.60
2018-06-28T19:12:38.273Z,86.70
2018-06-28T19:15:15.075Z,87.10
2018-06-28T19:17:46.372Z,87.40
2018-06-28T19:20:18.631Z,87.50
2018-06-28T19:22:55.686Z,87.60
2018-06-28T19:48:15.318Z,87.40
2018-06-28T19:50:51.163Z,90.30
2018-06-28T19:53:22.107Z,90.10
2018-06-28T19:55:56.167Z,90.20
2018-06-28T19:58:26.998Z,90.30
2018-06-28T20:01:04.182Z,90.30
2018-06-28T20:03:41.219Z,90.40
2018-06-28T20:06:12.102Z,90.40
2018-06-28T20:08:43.030Z,90.40
2018-06-28T20:11:13.997Z,90.50
2018-06-28T20:13:49.871Z,90.50
2018-06-28T20:16:26.024Z,90.60
2018-06-28T20:19:01.918Z,90.70
2018-06-28T20:24:04.929Z,90.70
2018-06-28T20:26:41.584Z,90.80
2018-06-28T20:29:17.614Z,90.80
2018-06-28T20:31:53.808Z,90.90
2018-06-28T20:34:24.652Z,91.00
2018-06-28T20:36:56.701Z,91.20
2018-06-28T20:39:28.680Z,91.30
2018-06-28T20:44:31.545Z,91.40
2018-06-28T20:47:03.180Z,91.50
2018-06-28T20:49:34.179Z,91.50
2018-06-28T20:52:05.297Z,91.50
2018-06-28T20:54:36.163Z,91.70
2018-06-28T20:57:07.528Z,91.90
2018-06-28T20:59:38.474Z,92.00
2018-06-28T21:02:09.290Z,92.10
2018-06-28T21:04:40.188Z,92.30
2018-06-28T21:07:11.001Z,92.10
2018-06-28T21:09:41.721Z,92.50
2018-06-28T21:12:12.787Z,92.80
2018-06-28T21:14:43.817Z,92.80
2018-06-28T21:17:14.618Z,92.70
2018-06-28T21:19:46.173Z,92.70
2018-06-28T21:22:18.203Z,92.70
2018-06-28T21:24:51.573Z,92.80
2018-06-28T21:27:23.105Z,93.20
2018-06-28T21:29:53.921Z,92.90
2018-06-28T21:32:24.689Z,93.10
2018-06-28T21:34:55.550Z,93.20
2018-06-28T21:37:26.399Z,93.30
2018-06-28T21:39:57.612Z,93.30
2018-06-28T21:42:30.364Z,93.30
2018-06-28T21:45:19.575Z,93.40
2018-06-28T21:48:14.158Z,93.40
2018-06-28T21:50:50.607Z,93.50
2018-06-28T21:53:22.219Z,93.60
2018-06-28T21:56:08.674Z,93.60
2018-06-28T21:58:45.632Z,93.50
2018-06-28T22:01:26.932Z,93.40
2018-06-28T22:04:04.342Z,93.30
2018-06-28T22:06:40.505Z,93.40
2018-06-28T22:09:19.499Z,93.40
2018-06-28T22:12:08.499Z,93.40
2018-06-28T22:14:40.462Z,93.40
2018-06-28T22:17:11.402Z,93.50
2018-06-28T22:22:12.633Z,93.40
2018-06-28T22:24:43.566Z,93.50
2018-06-28T22:27:16.847Z,93.70
2018-06-28T22:29:48.826Z,93.80
2018-06-28T22:32:19.819Z,93.70
2018-06-28T22:34:51.808Z,93.80
2018-06-28T22:37:22.720Z,93.70
2018-06-28T22:39:53.596Z,93.80
2018-06-28T22:42:24.437Z,93.90
2018-06-28T22:44:55.269Z,94.00
2018-06-28T22:47:26.093Z,94.10
2018-06-28T22:49:57.071Z,94.30
2018-06-28T22:52:27.966Z,94.50
2018-06-28T22:54:58.988Z,94.40
2018-06-28T23:00:00.420Z,94.60
2018-06-28T23:02:31.348Z,94.60
2018-06-28T23:05:02.261Z,94.70
2018-06-28T23:07:33.122Z,94.60
2018-06-28T23:10:04.076Z,94.50
2018-06-28T23:12:35.042Z,94.50
2018-06-28T23:15:06.092Z,94.50
2018-06-28T23:17:37.051Z,94.60
2018-06-28T23:20:08.048Z,94.70
2018-06-28T23:22:47.364Z,94.70
2018-06-28T23:25:18.266Z,95.00
2018-06-28T23:27:49.784Z,95.20
2018-06-28T23:30:20.863Z,95.30
2018-06-28T23:32:51.874Z,95.40
2018-06-28T23:35:22.771Z,95.30
2018-06-28T23:40:24.080Z,95.30
2018-06-28T23:42:55.039Z,95.30
2018-06-28T23:45:26.025Z,95.50
2018-06-28T23:47:56.926Z,95.50
2018-06-28T23:50:28.146Z,95.60
2018-06-28T23:52:59.205Z,95.50
2018-06-28T23:55:30.139Z,95.60
2018-06-28T23:58:01.117Z,95.50
